Time;durP1;ratioP1;P1;durP2;ratioP2;P2;SDS_P1;SDS_P2;PMS_P1;PMS_P2;Temp;Humidity;BMP_temperature;BMP_pressure;BME280_temperature;BME280_humidity;BME280_pressure;Samples;Min_cycle;Max_cycle;Signal;HPM_P1;HPM_P2
2021/12/24 00:00:19;;;;;;;22.13;13.60;;;;;;;4.30;48.38;94880.75;5012028;28;20181;-77
2021/12/24 00:02:46;;;;;;;23.20;14.33;;;;;;;4.29;48.62;94885.00;5012544;28;20192;-77
2021/12/24 00:05:14;;;;;;;22.77;13.43;;;;;;;4.30;48.45;94885.81;5012567;28;20220;-79
2021/12/24 00:07:42;;;;;;;20.43;12.90;;;;;;;4.30;48.35;94881.56;5013039;28;20200;-78
2021/12/24 00:10:10;;;;;;;21.10;13.00;;;;;;;4.30;48.25;94866.38;5012413;28;20196;-78
2021/12/24 00:12:42;;;;;;;17.57;11.30;;;;;;;3.78;48.38;94778.50;5012461;28;20192;-78
2021/12/24 00:15:24;;;;;;;17.90;11.53;;;;;;;4.28;48.38;94865.66;5012189;28;20198;-78
2021/12/24 00:17:53;;;;;;;17.80;11.33;;;;;;;4.28;48.54;94871.53;5012087;28;20582;-78
2021/12/24 00:21:48;;;;;;;19.20;11.80;;;;;;;4.28;48.61;94863.94;5012701;28;20220;-78
2021/12/24 00:35:05;;;;;;;17.40;11.47;;;;;;;4.27;48.60;94847.13;5011919;28;20200;-78
2021/12/24 00:37:16;;;;;;;18.97;11.97;;;;;;;4.21;48.80;94869.47;5012140;28;20666;-79
2021/12/24 00:39:51;;;;;;;20.23;12.30;;;;;;;4.02;48.91;94837.72;5011739;28;20672;-79
2021/12/24 00:42:18;;;;;;;18.67;12.57;;;;;;;4.27;48.74;94872.44;5011816;28;20198;-79
2021/12/24 00:44:45;;;;;;;19.50;12.53;;;;;;;4.27;48.84;94866.53;5011754;28;20227;-77
2021/12/24 00:47:12;;;;;;;19.17;12.20;;;;;;;4.27;48.84;94851.34;5011883;28;20258;-77
2021/12/24 00:49:39;;;;;;;20.60;13.57;;;;;;;4.26;48.94;94859.88;5011899;28;20572;-79
2021/12/24 00:52:21;;;;;;;22.07;13.27;;;;;;;4.28;48.94;94848.75;5011714;28;20248;-77
2021/12/24 00:55:06;;;;;;;18.93;13.13;;;;;;;4.27;48.94;94842.06;5011679;28;20210;-78
2021/12/24 00:57:34;;;;;;;18.23;12.37;;;;;;;4.27;48.92;94831.09;5011758;28;20226;-79
2021/12/24 01:00:01;;;;;;;21.63;13.17;;;;;;;4.27;49.10;94826.03;5011907;28;20207;-78
2021/12/24 01:02:27;;;;;;;22.13;12.90;;;;;;;3.79;49.05;94754.81;5011697;28;20207;-79
2021/12/24 01:04:54;;;;;;;21.03;13.10;;;;;;;4.25;49.05;94820.28;5011358;28;20703;-79
2021/12/24 01:07:21;;;;;;;20.23;12.93;;;;;;;4.25;49.03;94825.34;5011704;28;20263;-78
2021/12/24 01:09:50;;;;;;;28.27;13.13;;;;;;;4.23;48.83;94815.31;5011547;28;20243;-79
2021/12/24 01:12:17;;;;;;;20.80;12.10;;;;;;;4.23;48.81;94827.97;5011612;28;20196;-78
2021/12/24 01:14:47;;;;;;;24.70;13.07;;;;;;;4.24;48.75;94819.47;5011663;28;20194;-78
2021/12/24 01:17:25;;;;;;;19.57;13.13;;;;;;;4.27;48.83;94826.03;5011750;28;20192;-77
2021/12/24 01:19:58;;;;;;;19.40;12.60;;;;;;;3.99;48.62;94772.09;5011316;28;20199;-78
2021/12/24 01:23:04;;;;;;;16.97;12.50;;;;;;;4.30;48.66;94820.00;5011393;28;20250;-79
2021/12/24 01:25:32;;;;;;;19.00;12.07;;;;;;;4.31;48.72;94809.75;5010648;28;20220;-79
2021/12/24 01:28:24;;;;;;;18.50;12.17;;;;;;;4.33;48.66;94802.88;5011425;28;20876;-78
2021/12/24 01:39:11;;;;;;;20.33;11.60;;;;;;;4.31;48.69;94793.75;5011189;28;20715;-80
2021/12/24 01:44:27;;;;;;;20.17;12.97;;;;;;;4.21;48.68;94786.75;5010944;28;20219;-78
2021/12/24 01:46:56;;;;;;;17.27;11.47;;;;;;;4.18;48.59;94784.41;5010980;28;20184;-78
2021/12/24 01:49:24;;;;;;;18.37;11.40;;;;;;;4.25;48.47;94800.84;5011168;28;20267;-78
2021/12/24 01:51:52;;;;;;;16.07;11.73;;;;;;;4.23;48.53;94809.44;5010505;28;20232;-79
2021/12/24 01:54:20;;;;;;;18.13;10.90;;;;;;;4.23;48.50;94799.31;5010847;28;20200;-79
2021/12/24 01:56:49;;;;;;;14.43;10.80;;;;;;;4.21;48.38;94785.94;5010843;28;20207;-80
2021/12/24 01:59:16;;;;;;;14.53;10.57;;;;;;;4.21;48.62;94784.22;5011174;28;20193;-79
2021/12/24 02:01:44;;;;;;;16.13;10.80;;;;;;;4.21;48.37;94785.94;5010734;28;20192;-77
2021/12/24 02:04:13;;;;;;;15.27;10.47;;;;;;;4.09;48.43;94758.88;5010843;28;20250;-78
2021/12/24 02:06:41;;;;;;;15.27;10.40;;;;;;;4.17;48.30;94779.44;5010398;28;20642;-77
2021/12/24 02:09:09;;;;;;;13.43;10.47;;;;;;;4.15;48.40;94761.03;5010648;28;20196;-77
2021/12/24 02:11:38;;;;;;;17.30;11.57;;;;;;;4.13;48.31;94758.59;5010518;28;20204;-78
2021/12/24 02:14:09;;;;;;;16.37;10.73;;;;;;;4.10;48.50;94756.28;5010595;28;20195;-77
2021/12/24 02:16:53;;;;;;;12.93;10.43;;;;;;;3.89;48.38;94727.25;5010474;28;20280;-78
2021/12/24 02:30:36;;;;;;;17.10;10.27;;;;;;;3.78;48.74;94692.50;5010120;28;20211;-78
2021/12/24 02:33:04;;;;;;;15.00;11.00;;;;;;;4.06;48.67;94728.69;5010603;28;20632;-79
2021/12/24 02:35:31;;;;;;;15.77;11.47;;;;;;;4.06;48.68;94716.03;5009842;28;20690;-78
2021/12/24 02:38:00;;;;;;;13.90;11.23;;;;;;;3.80;48.72;94672.16;5010266;28;20211;-78
2021/12/24 02:40:27;;;;;;;16.17;11.27;;;;;;;3.86;48.60;94665.00;5010586;28;20195;-78
2021/12/24 02:42:56;;;;;;;16.40;10.90;;;;;;;4.05;48.88;94714.44;5010476;28;20203;-77
2021/12/24 02:45:24;;;;;;;17.80;12.17;;;;;;;4.02;48.93;94701.09;5010059;28;20220;-77
2021/12/24 02:48:10;;;;;;;19.23;12.47;;;;;;;4.01;49.17;94708.75;5010659;28;20561;-78
2021/12/24 02:56:10;;;;;;;18.70;12.57;;;;;;;3.88;49.32;94688.47;5010504;28;20557;-77
2021/12/24 02:58:41;;;;;;;18.27;12.80;;;;;;;3.93;49.63;94686.50;5009976;28;20676;-78
2021/12/24 03:01:09;;;;;;;20.77;13.20;;;;;;;3.90;49.66;94679.09;5010248;28;20200;-78
2021/12/24 03:03:35;;;;;;;22.47;13.27;;;;;;;3.81;49.83;94661.97;5010002;28;20684;-79
2021/12/24 03:06:03;;;;;;;20.80;13.67;;;;;;;3.86;50.03;94689.50;5010352;28;20232;-78
2021/12/24 03:08:31;;;;;;;21.10;13.37;;;;;;;3.83;50.08;94694.75;5010084;28;20193;-79
2021/12/24 03:10:59;;;;;;;24.23;14.63;;;;;;;3.65;50.19;94652.00;5011056;28;20200;-79
2021/12/24 03:13:27;;;;;;;21.87;14.13;;;;;;;3.80;50.13;94677.22;5009940;28;20204;-79
2021/12/24 03:15:57;;;;;;;19.97;13.97;;;;;;;3.65;50.27;94661.31;5010187;28;20188;-80
2021/12/24 03:18:27;;;;;;;22.10;13.30;;;;;;;3.75;50.30;94672.47;5009877;28;20275;-79
2021/12/24 03:21:01;;;;;;;23.20;13.40;;;;;;;3.73;50.44;94669.22;5009863;28;20192;-80
2021/12/24 03:23:37;;;;;;;19.73;12.30;;;;;;;3.70;50.59;94680.34;5009734;28;20200;-80
2021/12/24 03:26:06;;;;;;;24.07;14.77;;;;;;;3.16;50.55;94598.69;5009933;28;20282;-79
2021/12/24 03:28:33;;;;;;;22.23;14.23;;;;;;;3.67;50.56;94665.38;5009498;28;20694;-80
2021/12/24 03:31:01;;;;;;;20.00;14.27;;;;;;;3.66;50.60;94676.38;5009759;28;20184;-80
2021/12/24 03:33:28;;;;;;;24.03;14.63;;;;;;;3.64;50.73;94670.63;5010146;28;20204;-79
2021/12/24 03:35:55;;;;;;;22.87;14.73;;;;;;;3.48;50.80;94652.25;5012874;28;20196;-80
2021/12/24 03:38:21;;;;;;;21.90;13.40;;;;;;;3.60;50.94;94678.50;5013654;28;20191;-80
2021/12/24 03:40:48;;;;;;;24.53;14.73;;;;;;;3.63;50.81;94673.25;5013197;28;20203;-80
2021/12/24 03:43:17;;;;;;;23.87;14.57;;;;;;;3.62;50.93;94680.00;5013176;28;20192;-81
2021/12/24 03:45:49;;;;;;;25.60;15.20;;;;;;;3.61;50.89;94670.81;5013323;28;20215;-79
2021/12/24 03:48:21;;;;;;;24.30;14.47;;;;;;;3.63;51.03;94671.53;5013399;28;20200;-79
2021/12/24 03:50:56;;;;;;;22.13;14.13;;;;;;;3.63;51.15;94653.03;5013171;28;20609;-79
2021/12/24 03:56:08;;;;;;;24.80;16.97;;;;;;;3.64;51.04;94647.06;5013115;28;20199;-78
2021/12/24 03:58:36;;;;;;;24.43;15.83;;;;;;;3.64;51.29;94627.66;5013013;28;20192;-79
2021/12/24 04:01:03;;;;;;;25.17;16.60;;;;;;;3.65;51.36;94636.84;5013173;28;20181;-77
2021/12/24 04:03:30;;;;;;;24.37;15.63;;;;;;;3.59;51.32;94639.78;5013245;28;20188;-78
2021/12/24 04:05:57;;;;;;;23.07;15.00;;;;;;;3.66;51.24;94633.41;5012516;28;20227;-77
2021/12/24 04:08:24;;;;;;;25.37;16.47;;;;;;;3.67;51.17;94641.78;5012579;28;20196;-77
2021/12/24 04:10:51;;;;;;;26.43;16.90;;;;;;;3.67;51.45;94644.31;5012365;28;20200;-78
2021/12/24 04:13:18;;;;;;;26.63;16.93;;;;;;;3.66;51.53;94648.56;5012854;28;20278;-77
2021/12/24 04:15:46;;;;;;;24.50;15.50;;;;;;;3.53;51.52;94633.34;5012503;28;20328;-78
2021/12/24 04:18:18;;;;;;;23.40;15.20;;;;;;;3.69;51.52;94645.03;5012879;28;20203;-77
2021/12/24 04:26:13;;;;;;;24.53;14.73;;;;;;;3.67;51.26;94645.16;5012562;28;20309;-78
2021/12/24 04:28:40;;;;;;;25.77;14.73;;;;;;;3.51;51.67;94620.03;5012266;28;20366;-77
2021/12/24 04:31:08;;;;;;;22.90;14.83;;;;;;;3.67;51.67;94656.97;5012300;28;20663;-77
2021/12/24 04:33:38;;;;;;;25.03;15.20;;;;;;;3.67;51.67;94624.09;5012329;28;20199;-78
2021/12/24 04:36:21;;;;;;;22.00;13.97;;;;;;;3.66;51.82;94650.28;5012063;28;20779;-77
2021/12/24 04:39:09;;;;;;;19.17;13.43;;;;;;;3.43;51.70;94594.41;5012149;28;20200;-78
2021/12/24 04:52:54;;;;;;;20.93;12.57;;;;;;;3.63;51.87;94648.78;4894398;29;20204;-78
2021/12/24 05:03:38;;;;;;;24.13;14.40;;;;;;;3.52;51.82;94651.97;4857165;29;20245;-79
2021/12/24 05:06:13;;;;;;;17.70;13.73;;;;;;;3.65;52.06;94664.66;4855998;29;20218;-79
2021/12/24 05:08:48;;;;;;;21.20;13.53;;;;;;;3.67;51.92;94649.38;4856883;29;20257;-79
2021/12/24 05:11:15;;;;;;;23.70;14.53;;;;;;;3.61;52.03;94640.47;4856608;29;20602;-79
2021/12/24 05:13:42;;;;;;;18.93;13.50;;;;;;;3.69;52.01;94662.75;4856957;29;20291;-78
2021/12/24 05:16:19;;;;;;;22.87;15.37;;;;;;;3.70;52.08;94652.53;4856541;29;20786;-79
2021/12/24 05:21:37;;;;;;;21.60;14.23;;;;;;;3.71;52.23;94673.56;4875725;29;20207;-80
2021/12/24 05:24:07;;;;;;;22.23;14.27;;;;;;;3.70;52.17;94644.94;4893661;29;20188;-81
2021/12/24 05:26:35;;;;;;;21.17;14.37;;;;;;;3.70;52.35;94652.53;4900663;29;20762;-79
2021/12/24 05:29:04;;;;;;;21.37;14.37;;;;;;;3.70;52.30;94656.78;4912138;29;20203;-79
2021/12/24 05:31:32;;;;;;;23.70;14.47;;;;;;;3.67;52.45;94632.50;4912535;29;20204;-79
2021/12/24 05:34:02;;;;;;;26.87;15.23;;;;;;;3.69;52.43;94652.63;4912890;29;20184;-80
2021/12/24 05:36:29;;;;;;;24.57;15.50;;;;;;;3.68;52.47;94644.25;5009775;28;20279;-80
2021/12/24 05:38:56;;;;;;;25.30;15.30;;;;;;;3.68;52.58;94658.59;5011289;28;20201;-80
2021/12/24 05:41:23;;;;;;;20.67;14.50;;;;;;;3.68;52.67;94651.03;5011091;28;20246;-80
2021/12/24 05:43:51;;;;;;;25.00;15.77;;;;;;;3.69;52.57;94647.56;5011287;28;20216;-80
2021/12/24 05:46:18;;;;;;;28.80;16.30;;;;;;;3.40;52.63;94603.91;5010830;28;20224;-79
2021/12/24 05:48:45;;;;;;;26.23;15.87;;;;;;;3.69;52.61;94640.00;5011416;28;20196;-80
2021/12/24 05:51:13;;;;;;;25.20;15.03;;;;;;;3.70;52.71;94639.88;5010870;28;20231;-79
2021/12/24 05:53:40;;;;;;;25.90;15.03;;;;;;;3.71;52.72;94620.47;5010700;28;20196;-79
2021/12/24 05:56:07;;;;;;;26.63;16.73;;;;;;;3.70;52.46;94614.59;5010615;28;20253;-80
2021/12/24 05:58:34;;;;;;;27.63;16.17;;;;;;;3.54;52.51;94586.16;5010127;28;20243;-79
2021/12/24 06:01:01;;;;;;;28.53;16.10;;;;;;;3.72;52.51;94617.84;5010364;28;20195;-79
2021/12/24 06:03:27;;;;;;;27.13;16.30;;;;;;;3.76;52.40;94586.41;5010788;28;20564;-81
2021/12/24 06:05:54;;;;;;;26.40;15.40;;;;;;;3.66;52.60;94617.41;5010589;28;20218;-80
2021/12/24 06:08:22;;;;;;;25.50;16.13;;;;;;;3.81;52.20;94624.03;5011097;28;20192;-80
2021/12/24 06:10:49;;;;;;;27.30;16.30;;;;;;;3.85;52.31;94599.38;5010828;28;20192;-80
2021/12/24 06:13:16;;;;;;;29.27;16.13;;;;;;;3.79;52.39;94620.78;5010908;28;20565;-78
2021/12/24 06:15:45;;;;;;;24.10;15.40;;;;;;;3.91;52.17;94614.13;5010756;28;20197;-78
2021/12/24 06:18:20;;;;;;;26.07;16.37;;;;;;;3.81;52.15;94603.00;5010714;28;20207;-80
2021/12/24 06:20:48;;;;;;;27.73;16.30;;;;;;;3.81;52.01;94605.53;5011010;28;20279;-80
2021/12/24 06:23:18;;;;;;;28.43;17.10;;;;;;;4.03;51.92;94619.22;5010448;28;20188;-79
2021/12/24 06:25:46;;;;;;;26.43;15.03;;;;;;;4.12;51.77;94649.88;5010604;28;20307;-80
2021/12/24 06:28:13;;;;;;;23.73;15.40;;;;;;;4.23;51.61;94622.97;5010676;28;20192;-79
2021/12/24 06:30:41;;;;;;;23.23;15.93;;;;;;;4.41;51.45;94648.78;5010248;28;20207;-80
2021/12/24 06:33:08;;;;;;;26.67;14.40;;;;;;;4.63;51.09;94644.81;5010336;28;20196;-80
2021/12/24 06:35:36;;;;;;;25.43;15.23;;;;;;;4.81;50.78;94658.78;5011290;28;20192;-80
2021/12/24 06:38:04;;;;;;;26.53;15.80;;;;;;;4.95;50.74;94676.38;5010250;28;20212;-80
2021/12/24 06:40:31;;;;;;;23.57;14.83;;;;;;;5.05;50.66;94666.41;5010443;28;20872;-80
2021/12/24 06:42:59;;;;;;;24.77;15.47;;;;;;;4.96;50.62;94652.66;5009884;28;20682;-77
2021/12/24 06:45:26;;;;;;;25.40;16.47;;;;;;;5.24;50.21;94671.03;5010223;28;20196;-78
2021/12/24 06:47:55;;;;;;;25.57;15.63;;;;;;;5.31;50.20;94664.66;5010129;28;20189;-79
2021/12/24 06:50:22;;;;;;;27.60;15.73;;;;;;;5.40;50.06;94663.19;5010334;28;20231;-79
2021/12/24 06:52:49;;;;;;;33.20;16.87;;;;;;;5.47;49.90;94670.25;5009862;28;20200;-79
2021/12/24 06:55:17;;;;;;;28.77;17.70;;;;;;;5.25;49.66;94587.28;5010553;28;20195;-79
2021/12/24 06:57:46;;;;;;;22.60;15.83;;;;;;;5.60;49.66;94666.84;5009979;28;20200;-80
2021/12/24 07:00:18;;;;;;;28.67;15.90;;;;;;;5.66;49.63;94633.47;5010305;28;20198;-78
2021/12/24 07:02:45;;;;;;;26.90;16.57;;;;;;;5.70;49.30;94662.75;5010440;28;20192;-78
2021/12/24 07:05:12;;;;;;;28.03;16.23;;;;;;;5.29;49.12;94583.59;5012251;28;20192;-77
2021/12/24 07:07:39;;;;;;;22.87;14.60;;;;;;;5.72;49.20;94612.72;4975088;28;20936;-78
2021/12/24 07:10:06;;;;;;;27.13;15.97;;;;;;;5.86;49.08;94649.78;4970855;28;20201;-76
2021/12/24 07:12:33;;;;;;;31.63;16.57;;;;;;;5.58;48.98;94606.09;4973187;28;20189;-80
2021/12/24 07:15:00;;;;;;;24.70;15.73;;;;;;;5.64;48.78;94627.66;4972539;28;20201;-83
2021/12/24 07:17:29;;;;;;;23.33;15.70;;;;;;;5.95;48.73;94629.66;4976714;28;20281;-88
2021/12/24 07:19:55;;;;;;;26.43;15.57;;;;;;;5.77;48.73;94610.66;4977516;28;20190;-82
2021/12/24 07:22:22;;;;;;;20.80;14.40;;;;;;;5.97;48.80;94642.25;4975735;28;20198;-83
2021/12/24 07:24:50;;;;;;;20.87;7.97;;;;;;;6.47;100.00;94630.09;4972685;28;20197;-82
2021/12/24 07:27:17;;;;;;;16.23;8.40;;;;;;;7.61;100.00;94620.47;4956133;28;20241;-83
2021/12/24 07:29:43;;;;;;;9.80;7.53;;;;;;;8.18;100.00;94577.69;4955776;28;20585;-81
2021/12/24 07:32:10;;;;;;;10.67;7.60;;;;;;;9.56;100.00;94638.31;4972379;28;20190;-79
2021/12/24 07:34:38;;;;;;;11.93;7.67;;;;;;;10.45;96.76;94640.72;4972066;28;20627;-79
2021/12/24 07:37:05;;;;;;;15.10;7.93;;;;;;;10.88;90.60;94599.25;4972089;28;20190;-80
2021/12/24 07:39:32;;;;;;;12.57;8.17;;;;;;;11.65;85.02;94597.16;4972667;28;20198;-74
2021/12/24 07:41:59;;;;;;;18.43;7.97;;;;;;;12.52;79.83;94638.25;4971449;28;20582;-77
2021/12/24 07:44:28;;;;;;;12.83;7.67;;;;;;;12.95;74.48;94638.28;4972393;28;20187;-77
2021/12/24 07:46:58;;;;;;;15.83;7.83;;;;;;;13.59;70.13;94639.50;4971383;28;20229;-77
2021/12/24 07:49:33;;;;;;;13.47;8.13;;;;;;;14.05;66.84;94625.28;4971824;28;20284;-79
2021/12/24 07:52:09;;;;;;;12.47;8.67;;;;;;;14.42;64.75;94634.28;4972890;28;20712;-83
2021/12/24 07:54:39;;;;;;;12.03;7.10;;;;;;;14.67;65.33;94632.47;4971362;28;20194;-79
2021/12/24 07:57:07;;;;;;;11.93;7.43;;;;;;;15.17;64.89;94644.25;4971830;28;20661;-78
2021/12/24 07:59:37;;;;;;;13.47;7.83;;;;;;;15.55;61.61;94660.69;4972048;28;20792;-78
2021/12/24 08:02:07;;;;;;;10.97;8.40;;;;;;;15.90;58.53;94637.16;4971624;28;20198;-79
2021/12/24 08:04:34;;;;;;;13.70;7.93;;;;;;;16.26;56.23;94625.25;4972221;28;20637;-80
2021/12/24 08:07:03;;;;;;;12.20;8.17;;;;;;;16.57;54.46;94650.16;4972431;28;20217;-79
2021/12/24 08:09:30;;;;;;;13.47;8.00;;;;;;;16.83;52.74;94644.59;4972322;28;20198;-80
2021/12/24 08:11:57;;;;;;;12.43;8.37;;;;;;;16.85;51.49;94628.94;4972063;28;20672;-85
2021/12/24 08:14:23;;;;;;;11.70;8.33;;;;;;;16.80;50.43;94647.56;4972588;28;20216;-86
2021/12/24 08:16:50;;;;;;;19.37;9.30;;;;;;;16.76;49.34;94652.28;4972145;28;20197;-83
2021/12/24 08:19:18;;;;;;;12.83;8.50;;;;;;;16.72;48.56;94648.44;4972812;28;20186;-83
2021/12/24 08:21:46;;;;;;;12.27;8.00;;;;;;;16.59;47.87;94621.59;4972014;28;20288;-87
2021/12/24 08:24:14;;;;;;;9.43;7.80;;;;;;;16.82;47.46;94634.47;4972667;28;20268;-82
2021/12/24 08:26:41;;;;;;;11.23;8.20;;;;;;;16.93;46.87;94640.00;4972256;28;20228;-84
2021/12/24 08:29:08;;;;;;;10.90;8.10;;;;;;;16.80;46.37;94578.63;4971285;28;20190;-85
2021/12/24 08:31:35;;;;;;;9.37;7.70;;;;;;;17.20;45.69;94615.28;4970758;28;20190;-83
2021/12/24 08:34:03;;;;;;;10.13;7.63;;;;;;;17.41;45.19;94587.91;4971490;28;20245;-87
2021/12/24 08:36:30;;;;;;;11.27;8.00;;;;;;;17.70;44.50;94603.34;4971073;28;20197;-82
2021/12/24 08:38:57;;;;;;;10.60;8.03;;;;;;;18.02;43.81;94588.34;4954389;28;20201;-84
2021/12/24 08:41:26;;;;;;;10.53;7.77;;;;;;;18.20;43.36;94585.28;4971915;28;20657;-81
2021/12/24 08:43:53;;;;;;;11.73;7.67;;;;;;;18.11;42.86;94569.09;4971324;28;20202;-82
2021/12/24 08:46:20;;;;;;;10.43;8.00;;;;;;;18.12;42.74;94577.66;4970721;28;20221;-76
2021/12/24 08:48:47;;;;;;;11.90;7.43;;;;;;;17.74;42.58;94544.28;4970244;28;20194;-77
2021/12/24 08:51:17;;;;;;;11.23;7.63;;;;;;;17.75;42.41;94588.09;4970649;28;20233;-82
2021/12/24 08:53:44;;;;;;;13.37;9.83;;;;;;;17.71;42.33;94606.72;4971145;28;20190;-79
2021/12/24 08:56:13;;;;;;;16.67;10.07;;;;;;;16.95;41.08;94539.06;4971136;28;20696;-77
2021/12/24 08:58:41;;;;;;;16.90;10.70;;;;;;;16.79;39.74;94605.41;4970964;28;20186;-81
2021/12/24 09:01:08;;;;;;;16.33;11.57;;;;;;;16.02;39.39;94587.56;4970870;28;20244;-80
2021/12/24 09:03:35;;;;;;;13.23;10.80;;;;;;;15.77;38.89;94612.72;4970673;28;20653;-78
2021/12/24 09:06:02;;;;;;;19.50;12.57;;;;;;;15.24;38.79;94585.13;4970648;28;20189;-85
2021/12/24 09:08:28;;;;;;;15.07;11.73;;;;;;;14.85;38.40;94598.00;4971055;28;20221;-78
2021/12/24 09:10:55;;;;;;;18.37;11.70;;;;;;;14.14;38.06;94559.22;4971283;28;20189;-81
2021/12/24 09:13:22;;;;;;;17.77;12.50;;;;;;;14.05;38.26;94591.03;4969927;28;20198;-80
2021/12/24 09:15:53;;;;;;;18.87;12.63;;;;;;;13.10;38.27;94484.50;4970237;28;20197;-79
2021/12/24 09:18:21;;;;;;;18.77;12.80;;;;;;;13.36;38.18;94577.66;4969985;28;20289;-78
2021/12/24 09:20:48;;;;;;;19.43;12.33;;;;;;;13.04;38.32;94589.41;4970289;28;20580;-76
2021/12/24 09:23:15;;;;;;;23.10;13.27;;;;;;;12.14;38.61;94490.72;4970129;28;20583;-77
2021/12/24 09:25:43;;;;;;;17.77;12.73;;;;;;;12.49;38.72;94559.00;4970229;28;20194;-77
2021/12/24 09:28:09;;;;;;;17.80;13.63;;;;;;;12.32;38.92;94577.03;4970101;28;20217;-77
2021/12/24 09:30:37;;;;;;;20.07;13.20;;;;;;;11.88;38.76;94533.50;4969329;28;20186;-80
2021/12/24 09:33:06;;;;;;;16.70;12.37;;;;;;;11.66;39.18;94534.75;4969855;28;20197;-81
2021/12/24 09:35:33;;;;;;;17.53;12.43;;;;;;;11.71;39.43;94566.63;4970131;28;20229;-81
2021/12/24 09:38:02;;;;;;;20.17;12.87;;;;;;;11.58;39.72;94544.91;4970586;28;20200;-76
2021/12/24 09:40:30;;;;;;;21.47;12.27;;;;;;;11.45;39.80;94558.88;4969778;28;20197;-76
2021/12/24 09:42:57;;;;;;;23.47;12.77;;;;;;;11.32;39.96;94548.22;4970112;28;20218;-78
2021/12/24 09:45:24;;;;;;;16.93;12.77;;;;;;;11.19;40.20;94558.00;4969954;28;20205;-77
2021/12/24 09:47:51;;;;;;;21.77;12.67;;;;;;;10.88;40.25;94514.00;4970015;28;20225;-78
2021/12/24 09:50:22;;;;;;;17.47;11.87;;;;;;;11.00;40.40;94530.75;4969318;28;20233;-79
2021/12/24 09:52:50;;;;;;;17.70;12.43;;;;;;;10.90;40.49;94532.56;4969635;28;20193;-77
2021/12/24 09:55:20;;;;;;;19.27;12.43;;;;;;;10.84;40.89;94533.97;4996915;28;20188;-78
2021/12/24 09:57:47;;;;;;;16.97;11.83;;;;;;;10.78;40.87;94537.06;4996719;28;20192;-78
2021/12/24 10:00:17;;;;;;;16.83;12.70;;;;;;;10.57;40.85;94504.06;4995797;28;20656;-76
2021/12/24 10:02:48;;;;;;;19.93;12.20;;;;;;;10.43;41.00;94468.75;4993818;28;20196;-76
2021/12/24 10:05:36;;;;;;;21.30;13.20;;;;;;;10.64;41.19;94511.97;4995719;28;20196;-77
2021/12/24 10:08:09;;;;;;;20.47;13.67;;;;;;;10.60;41.36;94503.00;4995060;28;20216;-80
2021/12/24 10:10:40;;;;;;;19.30;12.97;;;;;;;10.55;41.59;94500.84;4995628;28;20196;-82
2021/12/24 10:13:27;;;;;;;17.53;12.20;;;;;;;10.52;41.54;94498.56;4997117;28;20184;-76
2021/12/24 10:15:56;;;;;;;20.57;12.57;;;;;;;10.50;41.77;94503.84;5003193;28;20199;-76
2021/12/24 10:18:35;;;;;;;22.93;12.97;;;;;;;10.49;41.88;94504.78;5007942;28;20189;-75
2021/12/24 10:21:07;;;;;;;17.57;11.93;;;;;;;10.50;41.79;94493.63;5008062;28;20196;-76
2021/12/24 10:23:51;;;;;;;19.20;12.73;;;;;;;10.49;41.82;94469.00;5008802;28;20190;-77
2021/12/24 10:26:21;;;;;;;20.47;12.53;;;;;;;10.44;41.98;94473.72;5008220;28;20730;-77
2021/12/24 10:28:51;;;;;;;18.33;11.07;;;;;;;10.52;42.06;94489.16;5007967;28;20568;-76
2021/12/24 10:31:19;;;;;;;18.27;12.07;;;;;;;10.55;41.92;94476.09;5007449;28;20202;-75
2021/12/24 10:34:04;;;;;;;16.37;11.93;;;;;;;10.59;42.15;94465.59;5008492;28;20655;-77
2021/12/24 10:36:32;;;;;;;19.27;12.00;;;;;;;10.62;42.22;94452.50;5008339;28;20578;-76
2021/12/24 10:38:59;;;;;;;16.53;11.87;;;;;;;10.63;42.11;94454.94;4996044;28;20235;-75
2021/12/24 10:41:30;;;;;;;19.60;12.63;;;;;;;10.66;42.04;94449.50;4997279;28;20273;-77
2021/12/24 10:44:16;;;;;;;18.00;12.23;;;;;;;10.71;42.21;94449.09;4996259;28;20196;-77
2021/12/24 10:46:58;;;;;;;16.00;11.53;;;;;;;9.92;42.17;94321.84;4998191;28;20192;-76
2021/12/24 10:49:37;;;;;;;18.20;11.60;;;;;;;10.77;42.27;94448.50;5001207;28;20229;-73
2021/12/24 10:52:16;;;;;;;18.57;11.57;;;;;;;10.78;42.15;94445.00;5002335;28;20220;-73
2021/12/24 10:54:54;;;;;;;17.77;12.00;;;;;;;10.65;42.11;94401.88;5000694;28;20188;-80
2021/12/24 10:57:23;;;;;;;14.47;11.17;;;;;;;10.88;42.25;94424.47;5001589;28;20204;-79
2021/12/24 10:59:53;;;;;;;17.40;11.53;;;;;;;10.67;41.91;94363.38;5001988;28;20191;-78
2021/12/24 11:02:42;;;;;;;22.03;11.00;;;;;;;11.09;42.16;94416.47;5016170;28;20200;-81
2021/12/24 11:05:24;;;;;;;15.73;11.43;;;;;;;11.20;41.95;94417.06;5018849;28;20207;-78
2021/12/24 11:07:52;;;;;;;15.33;11.23;;;;;;;11.28;42.18;94400.97;5011453;28;20231;-78
2021/12/24 11:10:23;;;;;;;16.30;11.20;;;;;;;11.35;42.09;94393.50;5011874;28;20203;-84
2021/12/24 11:12:54;;;;;;;15.20;12.20;;;;;;;11.42;42.25;94392.75;5014899;28;20196;-85
2021/12/24 11:15:29;;;;;;;17.03;12.47;;;;;;;11.50;42.19;94394.56;5015921;28;20684;-86
2021/12/24 11:17:57;;;;;;;14.57;10.33;;;;;;;11.41;42.30;94372.44;5013396;28;20566;-89
2021/12/24 11:20:26;;;;;;;17.53;10.60;;;;;;;11.63;42.41;94386.47;5014813;28;20199;-80
2021/12/24 11:22:59;;;;;;;18.97;10.10;;;;;;;11.69;42.28;94375.63;5012143;28;20195;-86
2021/12/24 11:25:28;;;;;;;14.60;10.37;;;;;;;11.75;42.33;94357.88;4994695;28;20192;-86
2021/12/24 11:27:55;;;;;;;15.63;10.07;;;;;;;11.77;42.44;94353.41;5011870;28;20239;-84
2021/12/24 11:30:26;;;;;;;19.20;9.70;;;;;;;11.91;42.45;94359.72;5011671;28;20202;-85
2021/12/24 11:32:53;;;;;;;14.27;9.27;;;;;;;11.15;42.63;94224.78;5012360;28;20830;-86
2021/12/24 11:35:21;;;;;;;13.17;7.83;;;;;;;12.11;42.49;94354.38;5012802;28;20199;-81
2021/12/24 11:37:49;;;;;;;10.60;7.97;;;;;;;12.19;42.75;94352.63;5011734;28;20578;-80
2021/12/24 11:40:21;;;;;;;10.07;6.57;;;;;;;12.17;42.98;94340.94;5012281;28;20192;-85
2021/12/24 11:42:52;;;;;;;11.53;6.50;;;;;;;12.39;42.76;94354.91;5013268;28;20197;-78
2021/12/24 11:45:23;;;;;;;9.63;6.33;;;;;;;12.47;43.11;94360.06;5011881;28;20567;-82
2021/12/24 11:47:50;;;;;;;7.43;5.50;;;;;;;12.54;42.97;94361.84;5010634;28;20224;-80
2021/12/24 11:50:18;;;;;;;5.63;5.07;;;;;;;12.64;43.01;94368.59;5011478;28;20232;-81
2021/12/24 11:52:48;;;;;;;5.67;4.90;;;;;;;12.72;43.09;94366.03;5011307;28;20185;-84
2021/12/24 11:55:19;;;;;;;8.03;5.37;;;;;;;12.78;43.22;94361.09;5010182;28;20189;-79
2021/12/24 11:57:55;;;;;;;5.87;4.63;;;;;;;12.85;43.15;94353.53;5010645;28;20224;-85
2021/12/24 12:00:28;;;;;;;11.33;4.00;;;;;;;13.12;66.08;94365.25;5011740;28;20211;-89
2021/12/24 12:02:55;;;;;;;8.20;3.30;;;;;;;13.19;59.31;94325.13;5010316;28;20199;-84
2021/12/24 12:05:26;;;;;;;12.43;3.80;;;;;;;13.55;55.16;94348.69;5010917;28;20659;-85
2021/12/24 12:08:28;;;;;;;4.33;3.00;;;;;;;13.67;52.75;94343.22;5011099;28;20216;-83
2021/12/24 12:10:59;;;;;;;8.80;2.80;;;;;;;13.71;51.38;94350.44;5007709;28;20195;-79
2021/12/24 12:13:40;;;;;;;4.67;3.13;;;;;;;13.50;49.42;94309.06;5010783;28;20718;-81
2021/12/24 12:16:08;;;;;;;6.10;2.80;;;;;;;13.75;48.54;94350.91;5010022;28;20208;-83
2021/12/24 12:18:44;;;;;;;5.33;2.77;;;;;;;13.76;48.06;94371.28;5010250;28;20283;-79
2021/12/24 12:21:13;;;;;;;5.20;3.30;;;;;;;13.47;47.66;94301.66;5009871;28;20188;-78
2021/12/24 12:26:51;;;;;;;4.77;2.60;;;;;;;13.77;46.19;94330.97;4930211;29;20698;-79
2021/12/24 12:29:43;;;;;;;7.53;3.20;;;;;;;13.66;45.52;94305.66;4929949;29;20242;-78
2021/12/24 12:32:28;;;;;;;5.43;2.83;;;;;;;13.71;45.15;94316.22;4926290;29;20679;-78
2021/12/24 12:35:00;;;;;;;3.20;2.90;;;;;;;13.74;44.97;94315.91;4930134;29;20199;-78
2021/12/24 12:37:29;;;;;;;7.53;2.70;;;;;;;13.72;44.65;94323.75;4929849;29;20218;-78
2021/12/24 12:39:58;;;;;;;3.17;2.80;;;;;;;13.73;44.46;94309.97;4930064;29;20195;-79
2021/12/24 12:43:07;;;;;;;2.70;2.50;;;;;;;13.72;44.03;94307.53;4929626;29;20786;-77
2021/12/24 12:46:04;;;;;;;2.60;2.40;;;;;;;13.68;43.96;94309.63;4929777;29;20209;-78
2021/12/24 12:48:51;;;;;;;3.17;2.87;;;;;;;13.71;43.92;94308.50;4928853;29;20774;-79
2021/12/24 12:51:20;;;;;;;5.37;2.67;;;;;;;13.69;43.70;94295.03;4929276;29;20234;-78